createdAt,value
2023-08-24T13:22:25.459Z,53.74
2023-08-24T13:24:53.783Z,56.70
2023-08-24T13:27:22.223Z,58.99
2023-08-24T13:29:50.627Z,60.69
2023-08-24T13:32:20.067Z,62.16
2023-08-24T13:34:48.296Z,64.62
2023-08-24T13:37:16.664Z,64.47
2023-08-24T13:39:45.041Z,65.52
2023-08-24T13:42:14.801Z,63.47
2023-08-24T13:44:43.201Z,64.56
2023-08-24T13:47:11.597Z,66.24
2023-08-24T13:49:41.284Z,69.13
2023-08-24T13:52:10.121Z,70.53
2023-08-24T13:54:38.575Z,72.66
2023-08-24T13:57:07.003Z,73.81
2023-08-24T13:59:35.372Z,74.28
2023-08-24T14:02:05.035Z,73.46
2023-08-24T14:04:34.029Z,75.89
2023-08-24T14:07:02.631Z,77.59
2023-08-24T14:09:30.829Z,75.90
2023-08-24T14:11:59.213Z,76.07
2023-08-24T14:14:27.602Z,77.33
2023-08-24T14:16:57.248Z,77.53
2023-08-24T14:19:26.844Z,77.84
2023-08-24T14:21:55.432Z,78.26
2023-08-24T14:24:24.109Z,76.59
2023-08-24T14:26:53.838Z,78.47
2023-08-24T14:29:22.178Z,79.61
2023-08-24T14:31:50.589Z,80.68
2023-08-24T14:34:19.085Z,76.42
2023-08-24T14:36:47.367Z,74.22
2023-08-24T14:39:15.764Z,75.27
2023-08-24T14:41:44.223Z,75.35
2023-08-24T14:44:12.531Z,74.47
2023-08-24T14:46:41.020Z,74.36
2023-08-24T14:49:09.856Z,72.19
2023-08-24T14:51:38.161Z,73.37
2023-08-24T14:54:08.581Z,72.99
2023-08-24T14:56:36.801Z,73.05
2023-08-24T14:59:05.123Z,74.68
2023-08-24T15:01:33.390Z,72.04
2023-08-24T15:04:01.762Z,73.92
2023-08-24T15:06:30.095Z,73.25
2023-08-24T15:08:59.420Z,73.62
2023-08-24T15:11:28.026Z,73.23
2023-08-24T15:13:56.292Z,73.11
2023-08-24T15:16:24.844Z,72.66
2023-08-24T15:18:53.136Z,72.46
2023-08-24T15:21:21.543Z,70.70
2023-08-24T15:23:49.792Z,69.85
2023-08-24T15:26:18.062Z,70.64
2023-08-24T15:29:25.038Z,71.39
2023-08-24T15:31:53.271Z,73.23
2023-08-24T15:34:21.409Z,71.67
2023-08-24T15:36:49.615Z,71.44
2023-08-24T15:39:17.842Z,70.23
2023-08-24T15:41:46.117Z,70.57
2023-08-24T15:44:14.420Z,70.43
2023-08-24T15:46:42.610Z,69.83
2023-08-24T15:49:10.866Z,68.72
2023-08-24T15:51:40.453Z,67.70
2023-08-24T15:54:09.074Z,69.17
2023-08-24T15:56:37.938Z,70.19
2023-08-24T15:59:06.254Z,71.78
2023-08-24T16:01:34.706Z,72.03
2023-08-24T16:04:03.687Z,73.42
2023-08-24T16:06:33.031Z,73.54
2023-08-24T16:09:01.286Z,73.41
2023-08-24T16:11:29.605Z,73.30
2023-08-24T16:13:57.917Z,73.69
2023-08-24T16:16:26.215Z,73.60
2023-08-24T16:18:54.722Z,73.65
2023-08-24T16:21:23.752Z,73.75
2023-08-24T16:23:52.051Z,73.53
2023-08-24T16:26:20.258Z,73.25
2023-08-24T16:28:50.600Z,72.73
2023-08-24T16:31:19.048Z,72.39
2023-08-24T16:33:47.705Z,71.38
2023-08-24T16:36:15.993Z,73.10
2023-08-24T16:38:44.391Z,74.21
2023-08-24T16:41:12.673Z,75.43
2023-08-24T16:43:41.080Z,75.22
2023-08-24T16:46:09.448Z,76.25
2023-08-24T16:48:37.713Z,78.36
2023-08-24T16:51:06.096Z,77.66
2023-08-24T16:53:34.377Z,79.05
2023-08-24T16:56:04.378Z,78.77
2023-08-24T16:58:33.965Z,78.99
2023-08-24T17:01:10.159Z,79.11
2023-08-24T17:03:38.488Z,80.23
2023-08-24T17:06:06.821Z,80.82
2023-08-24T17:08:35.329Z,81.02
2023-08-24T17:11:04.639Z,81.33
2023-08-24T17:13:33.105Z,81.61
2023-08-24T17:16:01.444Z,81.09
2023-08-24T17:18:30.974Z,80.96
2023-08-24T17:21:04.375Z,80.79
2023-08-24T17:23:32.675Z,82.62
2023-08-24T17:26:00.981Z,81.56
2023-08-24T17:28:29.401Z,80.70
2023-08-24T17:30:58.326Z,82.44
2023-08-24T17:33:26.765Z,81.80
2023-08-24T17:36:00.951Z,80.97
2023-08-24T17:38:29.523Z,82.12
2023-08-24T17:41:03.346Z,82.53
2023-08-24T17:43:35.013Z,82.89
2023-08-24T17:46:03.577Z,83.43
2023-08-24T17:48:33.051Z,83.90
2023-08-24T17:51:07.105Z,84.39
2023-08-24T17:53:35.896Z,82.95
2023-08-24T17:56:04.799Z,83.45
2023-08-24T17:58:34.115Z,84.21
2023-08-24T18:01:02.478Z,85.27
2023-08-24T18:03:30.828Z,84.41
2023-08-24T18:05:59.339Z,83.04
2023-08-24T18:08:34.662Z,84.03
2023-08-24T18:11:06.414Z,83.60
2023-08-24T18:13:34.896Z,85.49
2023-08-24T18:16:03.340Z,86.10
2023-08-24T18:18:33.175Z,87.71
2023-08-24T18:21:05.453Z,85.58
2023-08-24T18:23:34.123Z,87.35
2023-08-24T18:26:02.416Z,88.51
2023-08-24T18:28:30.662Z,88.59
2023-08-24T18:30:59.943Z,87.25
2023-08-24T18:33:28.263Z,86.28
2023-08-24T18:35:56.766Z,86.41
2023-08-24T18:38:26.389Z,86.39
2023-08-24T18:40:55.265Z,86.96
2023-08-24T18:43:23.774Z,85.83
2023-08-24T18:45:59.313Z,84.18
2023-08-24T18:48:27.771Z,84.76
2023-08-24T18:50:56.164Z,84.99
2023-08-24T18:53:24.688Z,86.78
2023-08-24T18:55:56.556Z,86.96
2023-08-24T18:58:25.107Z,86.24
2023-08-24T19:01:02.504Z,85.25
2023-08-24T19:03:32.342Z,85.71
2023-08-24T19:06:11.035Z,87.14
2023-08-24T19:08:43.244Z,87.93
2023-08-24T19:11:11.659Z,87.71
2023-08-24T19:13:39.996Z,87.01
2023-08-24T19:16:08.545Z,87.19
2023-08-24T19:18:37.090Z,87.78
2023-08-24T19:21:05.465Z,87.91
2023-08-24T19:23:34.216Z,86.22
2023-08-24T19:26:04.412Z,87.10
2023-08-24T19:28:33.200Z,87.36
2023-08-24T19:31:01.903Z,86.98
2023-08-24T19:33:30.328Z,86.98
2023-08-24T19:35:59.695Z,86.75
2023-08-24T19:38:28.021Z,87.67
2023-08-24T19:40:56.674Z,88.00
2023-08-24T19:43:24.934Z,87.38
2023-08-24T19:45:53.300Z,86.95
2023-08-24T19:48:23.515Z,87.69
2023-08-24T19:50:52.083Z,88.20
2023-08-24T19:53:20.835Z,87.73
2023-08-24T19:55:49.513Z,88.04
2023-08-24T19:58:17.699Z,87.86
2023-08-24T20:00:46.086Z,88.22
2023-08-24T20:03:14.350Z,87.10
2023-08-24T20:05:42.599Z,88.03
2023-08-24T20:08:10.965Z,87.75
2023-08-24T20:10:41.104Z,87.26
2023-08-24T20:13:10.048Z,88.42
2023-08-24T20:15:38.400Z,88.83
2023-08-24T20:18:06.791Z,88.45
2023-08-24T20:20:35.252Z,88.23
2023-08-24T20:23:03.825Z,88.61
2023-08-24T20:25:32.183Z,88.40
2023-08-24T20:28:00.440Z,88.45
2023-08-24T20:30:28.691Z,88.62
2023-08-24T20:32:57.207Z,88.38
2023-08-24T20:35:25.790Z,87.83
2023-08-24T20:37:54.543Z,87.92
2023-08-24T20:40:23.073Z,87.95
2023-08-24T20:42:51.295Z,87.45
2023-08-24T20:45:19.663Z,87.45
2023-08-24T20:47:48.417Z,87.57
2023-08-24T20:50:17.025Z,87.37
2023-08-24T20:52:45.426Z,87.59
2023-08-24T20:55:17.469Z,87.76
2023-08-24T20:57:46.291Z,89.15
2023-08-24T21:00:15.676Z,89.14
2023-08-24T21:02:44.105Z,89.60
2023-08-24T21:05:13.305Z,89.25
2023-08-24T21:07:41.816Z,89.53
2023-08-24T21:10:10.551Z,89.28
2023-08-24T21:12:38.863Z,89.40
2023-08-24T21:15:07.556Z,88.83
2023-08-24T21:17:36.072Z,88.94
2023-08-24T21:20:06.812Z,88.74
2023-08-24T21:22:35.278Z,88.15
2023-08-24T21:25:04.207Z,87.22
2023-08-24T21:27:32.570Z,87.50
2023-08-24T21:30:00.962Z,88.79
2023-08-24T21:32:31.289Z,89.18
2023-08-24T21:35:01.108Z,88.79
2023-08-24T21:37:29.366Z,89.51
2023-08-24T21:39:57.816Z,89.55
2023-08-24T21:42:26.265Z,89.45
2023-08-24T21:44:54.592Z,89.57
2023-08-24T21:47:22.859Z,89.16
2023-08-24T21:49:51.134Z,89.04
2023-08-24T21:52:19.374Z,89.26
2023-08-24T21:54:47.812Z,89.17
2023-08-24T21:57:16.465Z,89.52
2023-08-24T21:59:45.512Z,89.75
2023-08-24T22:02:13.921Z,90.32
2023-08-24T22:04:42.312Z,89.77
2023-08-24T22:07:10.582Z,88.96
2023-08-24T22:09:40.759Z,89.78
2023-08-24T22:12:09.070Z,90.54
2023-08-24T22:14:37.320Z,90.48
2023-08-24T22:17:05.866Z,90.12
2023-08-24T22:19:34.132Z,90.29
2023-08-24T22:22:02.383Z,90.32
2023-08-24T22:24:30.725Z,90.15
2023-08-24T22:26:59.242Z,90.44
2023-08-24T22:29:31.824Z,90.72
2023-08-24T22:32:00.428Z,90.21
2023-08-24T22:34:29.335Z,90.92
2023-08-24T22:36:57.624Z,90.75
2023-08-24T22:39:26.004Z,90.85
2023-08-24T22:41:54.853Z,90.98
2023-08-24T22:44:23.248Z,91.20
2023-08-24T22:46:51.504Z,90.71
2023-08-24T22:49:19.965Z,90.23
2023-08-24T22:51:48.265Z,90.08
2023-08-24T22:54:17.794Z,89.81
2023-08-24T22:56:46.482Z,90.53
2023-08-24T22:59:14.724Z,90.01
2023-08-24T23:01:44.153Z,89.74
2023-08-24T23:04:12.547Z,90.35
2023-08-24T23:06:49.086Z,90.31
2023-08-24T23:09:17.454Z,90.70
2023-08-24T23:11:45.926Z,89.63
2023-08-24T23:14:14.477Z,89.47
2023-08-24T23:16:42.773Z,90.05
2023-08-24T23:19:12.405Z,90.73
2023-08-24T23:21:41.445Z,91.26
2023-08-24T23:24:36.374Z,92.19
2023-08-24T23:26:58.358Z,91.87
2023-08-24T23:29:26.873Z,90.39
2023-08-24T23:31:55.133Z,90.79
2023-08-24T23:34:23.391Z,90.08
2023-08-24T23:36:51.773Z,91.64
2023-08-24T23:39:20.144Z,91.46
2023-08-24T23:41:48.508Z,91.19
2023-08-24T23:44:17.181Z,91.16
2023-08-24T23:46:45.514Z,91.29
2023-08-24T23:49:13.826Z,90.97
2023-08-24T23:51:42.065Z,91.07
2023-08-24T23:54:10.461Z,91.53
2023-08-24T23:56:38.907Z,91.45
2023-08-24T23:59:08.085Z,91.29
